NCAR-RAP Real-Time Weather Data

Output produced by METARs form (21 August 2017  04:38 UTC)
found at http://weather.rap.ucar.edu/surface/
 
Conditions at: KFMY observed 21 August 2017  03:53 UTC
Temperature: 26.7°C (80°F)
Dewpoint: 26.1°C (79°F) [RH = 97%]
Pressure (altimeter): 30.10 inches Hg (1019.4 mb)
[Sea-level pressure: 1019.5 mb]
Winds: calm
Visibility: 10 or more miles (16+ km)
Ceiling: at least 12,000 feet AGL
Clouds: sky clear below 12,000 feet AGL
Present Weather: automated observation with no human augmentation;
there may or may not be significant weather present at this time
KFMY 210353Z AUTO 00000KT 10SM CLR 27/26 A3010 RMK AO2 SLP195 T02670261

Conditions at: KFMY observed 21 August 2017  02:53 UTC
Temperature: 26.7°C (80°F)
Dewpoint: 26.1°C (79°F) [RH = 97%]
Pressure (altimeter): 30.09 inches Hg (1019.0 mb)
[Sea-level pressure: 1019.2 mb]
Winds: calm
Visibility: 10 or more miles (16+ km)
Ceiling: at least 12,000 feet AGL
Clouds: sky clear below 12,000 feet AGL
Present Weather: automated observation with no human augmentation;
there may or may not be significant weather present at this time
KFMY 210253Z AUTO 00000KT 10SM CLR 27/26 A3009 RMK AO2 SLP192 60000 T02670261 53024

Conditions at: KFMY observed 21 August 2017  01:53 UTC
Temperature: 26.7°C (80°F)
Dewpoint: 26.1°C (79°F) [RH = 97%]
Pressure (altimeter): 30.05 inches Hg (1017.7 mb)
[Sea-level pressure: 1017.6 mb]
Winds: from the E (90 degrees) at 3 MPH (3 knots; 1.6 m/s)
Visibility: 10 or more miles (16+ km)
Ceiling: at least 12,000 feet AGL
Clouds: few clouds at 5500 feet AGL
Present Weather: automated observation with no human augmentation;
there may or may not be significant weather present at this time
KFMY 210153Z AUTO 09003KT 10SM FEW055 27/26 A3005 RMK AO2 RAB20E52 SLP176 P0000 T02670261

Conditions at: KFMY observed 21 August 2017  00:53 UTC
Temperature: 26.7°C (80°F)
Dewpoint: 26.1°C (79°F) [RH = 97%]
Pressure (altimeter): 30.05 inches Hg (1017.7 mb)
[Sea-level pressure: 1017.6 mb]
Winds: from the E (80 degrees) at 3 MPH (3 knots; 1.6 m/s)
Visibility: 10 or more miles (16+ km)
Ceiling: at least 12,000 feet AGL
Clouds: few clouds at 9000 feet AGL
Present Weather: no significant weather observed at this time
KFMY 210053Z 08003KT 10SM FEW090 27/26 A3005 RMK AO2 LTG DSNT SW SLP176 T02670261

Conditions at: KFMY observed 20 August 2017  23:53 UTC
Temperature: 26.1°C (79°F)
Dewpoint: 25.6°C (78°F) [RH = 97%]
Pressure (altimeter): 30.02 inches Hg (1016.7 mb)
[Sea-level pressure: 1016.8 mb]
Winds: from the NE (40 degrees) at 8 MPH (7 knots; 3.6 m/s)
Visibility: 10 or more miles (16+ km)
Ceiling: at least 12,000 feet AGL
Clouds: sky clear below 12,000 feet AGL
Present Weather: no significant weather observed at this time
KFMY 202353Z 04007KT 10SM CLR 26/26 A3002 RMK AO2 LTG DSNT S AND SW RAB12E21 SLP168 P0000 60023 T02610256 10333 20256 53012

Conditions at: KFMY observed 20 August 2017  22:53 UTC
Temperature: 26.7°C (80°F)
Dewpoint: 24.4°C (76°F) [RH = 87%]
Pressure (altimeter): 30.00 inches Hg (1016.0 mb)
[Sea-level pressure: 1015.9 mb]
Winds: from the NE (40 degrees) at 5 MPH (4 knots; 2.1 m/s)
Visibility: 10 or more miles (16+ km)
Ceiling: at least 12,000 feet AGL
Clouds: sky clear below 12,000 feet AGL
Present Weather: no significant weather observed at this time
KFMY 202253Z 04004KT 10SM CLR 27/24 A3000 RMK AO2 LTG DSNT SW AND W RAE12 TSE2155B2156E11 SLP159 P0000 T02670244

Conditions at: KFMY observed 20 August 2017  22:17 UTC
Temperature: 26.1°C (79°F)
Dewpoint: 25.6°C (78°F) [RH = 97%]
Pressure (altimeter): 29.99 inches Hg (1015.7 mb)
Winds: from the NE (40 degrees) at 7 MPH (6 knots; 3.1 m/s)
Visibility: 10 or more miles (16+ km)
Ceiling: at least 12,000 feet AGL
Clouds: few clouds at 11000 feet AGL
Present Weather: no significant weather observed at this time
KFMY 202217Z 04006KT 10SM FEW110 26/26 A2999 RMK AO2 LTG DSNT SE-W RAE12 TSE2155B2156E11 P0000 T02610256

Conditions at: KFMY observed 20 August 2017  21:53 UTC
Temperature: 26.1°C (79°F)
Dewpoint: 25.6°C (78°F) [RH = 97%]
Pressure (altimeter): 30.00 inches Hg (1016.0 mb)
[Sea-level pressure: 1016.1 mb]
Winds: from the NE (40 degrees) at 12 MPH (10 knots; 5.2 m/s)
Visibility: 8 miles (13 km)
Ceiling: 10000 feet AGL
Clouds: scattered clouds at 5000 feet AGL
broken clouds at 10000 feet AGL
overcast cloud deck at 11000 feet AGL
Present Weather: -TSRA  (light rain associated with thunderstorm(s))
KFMY 202153Z 04010KT 8SM -TSRA SCT050 BKN100 OVC110 26/26 A3000 RMK AO2 LTG DSNT S-NW RAE10B22 TSB11E26B40 SLP161 P0022 T02610256

Conditions at: KFMY observed 20 August 2017  21:41 UTC
Temperature: 26.1°C (79°F)
Dewpoint: 26.1°C (79°F) [RH = 100%]
Pressure (altimeter): 29.99 inches Hg (1015.7 mb)
Winds: from the NNE (30 degrees) at 13 MPH (11 knots; 5.7 m/s)
Visibility: 3 miles (5 km)
Ceiling: 5000 feet AGL
Clouds: few clouds at 3300 feet AGL
broken clouds at 5000 feet AGL
overcast cloud deck at 6000 feet AGL
Present Weather: +TSRA BR  (heavy rain associated with thunderstorm(s), mist)
KFMY 202141Z 03011KT 3SM +TSRA BR FEW033 BKN050 OVC060 26/26 A2999 RMK AO2 LTG DSNT S-NW RAE10B22 TSB11E26B40 P0019 T02610261

Conditions at: KFMY observed 20 August 2017  21:38 UTC
Temperature: 26.1°C (79°F)
Dewpoint: 26.1°C (79°F) [RH = 100%]
Pressure (altimeter): 30.00 inches Hg (1016.0 mb)
Winds: from the NE (40 degrees) at 12 MPH (10 knots; 5.2 m/s)
Visibility: 1.75 miles (2.82 km)
Ceiling: 4500 feet AGL
Clouds: few clouds at 3300 feet AGL
broken clouds at 4500 feet AGL
overcast cloud deck at 8000 feet AGL
Present Weather: VCTS +RA BR  (thunderstorm in vicinity, heavy rain, mist)
KFMY 202138Z 04010KT 1 3/4SM VCTS +RA BR FEW033 BKN045 OVC080 26/26 A3000 RMK AO2 LTG DSNT ALQDS RAE10B22 TSB11E26 P0016 T02610261

Conditions at: KFMY observed 20 August 2017  21:29 UTC
Temperature: 25.6°C (78°F)
Dewpoint: 25.0°C (77°F) [RH = 96%]
Pressure (altimeter): 29.99 inches Hg (1015.7 mb)
Winds: from the ENE (70 degrees) at 16 MPH (14 knots; 7.3 m/s)
Visibility: 2.50 miles (4.02 km)
Ceiling: 4700 feet AGL
Clouds: few clouds at 3300 feet AGL
broken clouds at 4700 feet AGL
broken clouds at 7000 feet AGL
Present Weather: VCTS +RA BR  (thunderstorm in vicinity, heavy rain, mist)
KFMY 202129Z 07014KT 2 1/2SM VCTS +RA BR FEW033 BKN047 BKN070 26/25 A2999 RMK AO2 LTG DSNT ALQDS RAE10B22 TSB11E26 P0002 T02560250

Conditions at: KFMY observed 20 August 2017  21:17 UTC
Temperature: 27.2°C (81°F)
Dewpoint: 24.4°C (76°F) [RH = 85%]
Pressure (altimeter): 30.00 inches Hg (1016.0 mb)
Winds: from the ENE (70 degrees) at 13 MPH (11 knots; 5.7 m/s)
Visibility: 10 or more miles (16+ km)
Ceiling: 10000 feet AGL
Clouds: scattered clouds at 3300 feet AGL
scattered clouds at 4400 feet AGL
broken clouds at 10000 feet AGL
Present Weather: TS  (thunderstorm)
KFMY 202117Z 07011KT 10SM TS SCT033 SCT044 BKN100 27/24 A3000 RMK AO2 LTG DSNT ALQDS RAE10 TSB11 P0000 T02720244

Conditions at: KFMY observed 20 August 2017  20:53 UTC
Temperature: 27.8°C (82°F)
Dewpoint: 24.4°C (76°F) [RH = 82%]
Pressure (altimeter): 29.99 inches Hg (1015.7 mb)
[Sea-level pressure: 1015.6 mb]
Winds: from the ENE (70 degrees) at 5 MPH (4 knots; 2.1 m/s)
Visibility: 7 miles (11 km)
Ceiling: 9500 feet AGL
Clouds: scattered clouds at 4300 feet AGL
scattered clouds at 6500 feet AGL
broken clouds at 9500 feet AGL
Present Weather: -RA  (light rain)
KFMY 202053Z 07004KT 7SM -RA SCT043 SCT065 BKN095 28/24 A2999 RMK AO2 LTG DSNT N AND NE RAB37 TSB21E36 SLP156 P0001 60001 T02780244 55011

Conditions at: KFMY observed 20 August 2017  20:42 UTC
Temperature: 28.3°C (83°F)
Dewpoint: 23.9°C (75°F) [RH = 77%]
Pressure (altimeter): 29.98 inches Hg (1015.3 mb)
Winds: from the ENE (70 degrees) at 12 MPH (10 knots; 5.2 m/s)
gusting to 23 MPH (20 knots; 10.4 m/s)
Visibility: 10 or more miles (16+ km)
Ceiling: 5500 feet AGL
Clouds: few clouds at 2700 feet AGL
scattered clouds at 4100 feet AGL
broken clouds at 5500 feet AGL
Present Weather: -RA  (light rain)
KFMY 202042Z 07010G20KT 10SM -RA FEW027 SCT041 BKN055 28/24 A2998 RMK AO2 LTG DSNT N AND NE RAB37 TSB21E36 P0000 T02830239

Conditions at: KFMY observed 20 August 2017  20:27 UTC
Temperature: 30.6°C (87°F)
Dewpoint: 25.0°C (77°F) [RH = 72%]
Pressure (altimeter): 29.97 inches Hg (1015.0 mb)
Winds: from the ENE (60 degrees) at 18 MPH (16 knots; 8.3 m/s)
gusting to 26 MPH (23 knots; 12.0 m/s)
Visibility: 10 or more miles (16+ km)
Ceiling: 4200 feet AGL
Clouds: broken clouds at 4200 feet AGL
broken clouds at 9000 feet AGL
Present Weather: TS  (thunderstorm)
KFMY 202027Z 06016G23KT 10SM TS BKN042 BKN090 31/25 A2997 RMK AO2 LTG DSNT ALQDS TSB21 T03060250

Conditions at: KFMY observed 20 August 2017  20:20 UTC
Temperature: 32.2°C (90°F)
Dewpoint: 25.0°C (77°F) [RH = 66%]
Pressure (altimeter): 29.97 inches Hg (1015.0 mb)
Winds: from the E (80 degrees) at 13 MPH (11 knots; 5.7 m/s)
Visibility: 10 or more miles (16+ km)
Ceiling: 4000 feet AGL
Clouds: broken clouds at 4000 feet AGL
broken clouds at 8500 feet AGL
Present Weather: VCTS  (thunderstorm in vicinity)
KFMY 202020Z 08011KT 10SM VCTS BKN040 BKN085 32/25 A2997 RMK AO2 LTG DSNT N-SE T03220250

Conditions at: KFMY observed 20 August 2017  19:53 UTC
Temperature: 32.8°C (91°F)
Dewpoint: 24.4°C (76°F) [RH = 61%]
Pressure (altimeter): 29.98 inches Hg (1015.3 mb)
[Sea-level pressure: 1015.5 mb]
Winds: from the SSE (150 degrees) at 6 MPH (5 knots; 2.6 m/s)
Visibility: 10 or more miles (16+ km)
Ceiling: at least 12,000 feet AGL
Clouds: scattered clouds at 3300 feet AGL
Present Weather: no significant weather observed at this time
KFMY 201953Z COR 15005KT 10SM SCT033 33/24 A2998 RMK AO2 SLP155 T03280244

Conditions at: KFMY observed 20 August 2017  19:40 UTC
Temperature: 32.2°C (90°F)
Dewpoint: 24.4°C (76°F) [RH = 64%]
Pressure (altimeter): 29.99 inches Hg (1015.7 mb)
Winds: from the SE (140 degrees) at 8 MPH (7 knots; 3.6 m/s)
Visibility: 10 or more miles (16+ km)
Ceiling: at least 12,000 feet AGL
Clouds: few clouds at 3600 feet AGL
Present Weather: VCTS  (thunderstorm in vicinity)
KFMY 201940Z 14007KT 10SM VCTS FEW036 32/24 A2999 RMK AO2 LTG DSNT W T03220244

Conditions at: KFMY observed 20 August 2017  18:53 UTC
Temperature: 32.2°C (90°F)
Dewpoint: 24.4°C (76°F) [RH = 64%]
Pressure (altimeter): 30.00 inches Hg (1016.0 mb)
[Sea-level pressure: 1016.2 mb]
Winds: from the SE (140 degrees) at 10 MPH (9 knots; 4.7 m/s)
Visibility: 10 or more miles (16+ km)
Ceiling: at least 12,000 feet AGL
Clouds: scattered clouds at 3300 feet AGL
Present Weather: no significant weather observed at this time
KFMY 201853Z 14009KT 10SM SCT033 32/24 A3000 RMK AO2 SLP162 T03220244

Conditions at: KFMY observed 20 August 2017  17:53 UTC
Temperature: 31.1°C (88°F)
Dewpoint: 25.6°C (78°F) [RH = 73%]
Pressure (altimeter): 30.02 inches Hg (1016.7 mb)
[Sea-level pressure: 1016.7 mb]
Winds: from the ESE (120 degrees) at 10 MPH (9 knots; 4.7 m/s)
Visibility: 10 or more miles (16+ km)
Ceiling: at least 12,000 feet AGL
Clouds: few clouds at 2500 feet AGL
Present Weather: no significant weather observed at this time
KFMY 201753Z 12009KT 10SM FEW025 31/26 A3002 RMK AO2 SLP167 T03110256 10317 20261 58003

Conditions at: KFMY observed 20 August 2017  16:53 UTC
Temperature: 30.0°C (86°F)
Dewpoint: 25.6°C (78°F) [RH = 77%]
Pressure (altimeter): 30.02 inches Hg (1016.7 mb)
[Sea-level pressure: 1016.8 mb]
Winds: from the E (90 degrees) at 12 MPH (10 knots; 5.2 m/s)
Visibility: 10 or more miles (16+ km)
Ceiling: at least 12,000 feet AGL
Clouds: sky clear below 12,000 feet AGL
Present Weather: no significant weather observed at this time
KFMY 201653Z 09010KT 10SM CLR 30/26 A3002 RMK AO2 SLP168 T03000256

Conditions at: KFMY observed 20 August 2017  15:53 UTC
Temperature: 30.0°C (86°F)
Dewpoint: 25.0°C (77°F) [RH = 75%]
Pressure (altimeter): 30.04 inches Hg (1017.4 mb)
[Sea-level pressure: 1017.3 mb]
Winds: from the E (100 degrees) at 9 MPH (8 knots; 4.2 m/s)
Visibility: 10 or more miles (16+ km)
Ceiling: at least 12,000 feet AGL
Clouds: scattered clouds at 3000 feet AGL
Present Weather: no significant weather observed at this time
KFMY 201553Z COR 10008KT 10SM SCT030 30/25 A3004 RMK AO2 SLP173 T03000250

Conditions at: KFMY observed 20 August 2017  14:53 UTC
Temperature: 30.6°C (87°F)
Dewpoint: 25.0°C (77°F) [RH = 72%]
Pressure (altimeter): 30.03 inches Hg (1017.0 mb)
[Sea-level pressure: 1017.0 mb]
Winds: from the E (90 degrees) at 10 MPH (9 knots; 4.7 m/s)
Visibility: 10 or more miles (16+ km)
Ceiling: at least 12,000 feet AGL
Clouds: scattered clouds at 3000 feet AGL
Present Weather:
SOME DATA ABOVE MAY BE INACCURATE!!!
"$" is an indication the sensor requires maintenance
KFMY 201453Z COR 09009KT 10SM SCT030 31/25 A3003 RMK AO2 SLP170 T03060250 53008 $

Conditions at: KFMY observed 20 August 2017  13:53 UTC
Temperature: 29.4°C (85°F)
Dewpoint: 25.6°C (78°F) [RH = 80%]
Pressure (altimeter): 30.01 inches Hg (1016.3 mb)
[Sea-level pressure: 1016.4 mb]
Winds: from the E (90 degrees) at 9 MPH (8 knots; 4.2 m/s)
Visibility: 10 or more miles (16+ km)
Ceiling: at least 12,000 feet AGL
Clouds: sky clear below 12,000 feet AGL
Present Weather:
SOME DATA ABOVE MAY BE INACCURATE!!!
"$" is an indication the sensor requires maintenance
KFMY 201353Z 09008KT 10SM CLR 29/26 A3001 RMK AO2 SLP164 T02940256 $

Conditions at: KFMY observed 20 August 2017  12:53 UTC
Temperature: 28.3°C (83°F)
Dewpoint: 26.1°C (79°F) [RH = 88%]
Pressure (altimeter): 30.00 inches Hg (1016.0 mb)
[Sea-level pressure: 1016.2 mb]
Winds: from the NE (40 degrees) at 5 MPH (4 knots; 2.1 m/s)
Visibility: 10 or more miles (16+ km)
Ceiling: at least 12,000 feet AGL
Clouds: sky clear below 12,000 feet AGL
Present Weather:
SOME DATA ABOVE MAY BE INACCURATE!!!
"$" is an indication the sensor requires maintenance
KFMY 201253Z 04004KT 10SM CLR 28/26 A3000 RMK AO2 SLP162 T02830261 $

Conditions at: KFMY observed 20 August 2017  11:53 UTC
Temperature: 26.1°C (79°F)
Dewpoint: 25.6°C (78°F) [RH = 97%]
Pressure (altimeter): 30.00 inches Hg (1016.0 mb)
[Sea-level pressure: 1016.2 mb]
Winds: from the NE (50 degrees) at 6 MPH (5 knots; 2.6 m/s)
Visibility: 10 or more miles (16+ km)
Ceiling: at least 12,000 feet AGL
Clouds: sky clear below 12,000 feet AGL
Present Weather:
SOME DATA ABOVE MAY BE INACCURATE!!!
"$" is an indication the sensor requires maintenance
KFMY 201153Z 05005KT 10SM CLR 26/26 A3000 RMK AO2 SLP162 70001 T02610256 10267 20256 53017 $

Conditions at: KFMY observed 20 August 2017  10:53 UTC
Temperature: 25.6°C (78°F)
Dewpoint: 25.6°C (78°F) [RH = 100%]
Pressure (altimeter): 29.99 inches Hg (1015.7 mb)
[Sea-level pressure: 1015.6 mb]
Winds: from the E (100 degrees) at 3 MPH (3 knots; 1.6 m/s)
Visibility: 10 or more miles (16+ km)
Ceiling: at least 12,000 feet AGL
Clouds: sky clear below 12,000 feet AGL
Present Weather:
SOME DATA ABOVE MAY BE INACCURATE!!!
"$" is an indication the sensor requires maintenance
KFMY 201053Z 10003KT 10SM CLR 26/26 A2999 RMK AO2 SLP156 T02560256 $

Conditions at: KFMY observed 20 August 2017  09:53 UTC
Temperature: 25.6°C (78°F)
Dewpoint: 25.6°C (78°F) [RH = 100%]
Pressure (altimeter): 29.97 inches Hg (1015.0 mb)
[Sea-level pressure: 1015.0 mb]
Winds: from the E (90 degrees) at 3 MPH (3 knots; 1.6 m/s)
Visibility: 10 or more miles (16+ km)
Ceiling: at least 12,000 feet AGL
Clouds: sky clear below 12,000 feet AGL
Present Weather:
SOME DATA ABOVE MAY BE INACCURATE!!!
"$" is an indication the sensor requires maintenance
KFMY 200953Z AUTO 09003KT 10SM CLR 26/26 A2997 RMK AO2 SLP150 T02560256 $

Conditions at: KFMY observed 20 August 2017  08:53 UTC
Temperature: 26.1°C (79°F)
Dewpoint: 25.6°C (78°F) [RH = 97%]
Pressure (altimeter): 29.95 inches Hg (1014.3 mb)
[Sea-level pressure: 1014.5 mb]
Winds: from the NNE (20 degrees) at 3 MPH (3 knots; 1.6 m/s)
Visibility: 10 or more miles (16+ km)
Ceiling: at least 12,000 feet AGL
Clouds: sky clear below 12,000 feet AGL
Present Weather:
SOME DATA ABOVE MAY BE INACCURATE!!!
"$" is an indication the sensor requires maintenance
KFMY 200853Z AUTO 02003KT 10SM CLR 26/26 A2995 RMK AO2 SLP145 T02610256 55007 $

Conditions at: KFMY observed 20 August 2017  07:53 UTC
Temperature: 26.1°C (79°F)
Dewpoint: 25.6°C (78°F) [RH = 97%]
Pressure (altimeter): 29.95 inches Hg (1014.3 mb)
[Sea-level pressure: 1014.2 mb]
Winds: calm
Visibility: 10 or more miles (16+ km)
Ceiling: at least 12,000 feet AGL
Clouds: sky clear below 12,000 feet AGL
Present Weather:
SOME DATA ABOVE MAY BE INACCURATE!!!
"$" is an indication the sensor requires maintenance
KFMY 200753Z AUTO 00000KT 10SM CLR 26/26 A2995 RMK AO2 SLP142 T02610256 $

Conditions at: KFMY observed 20 August 2017  06:53 UTC
Temperature: 26.7°C (80°F)
Dewpoint: 25.6°C (78°F) [RH = 94%]
Pressure (altimeter): 29.95 inches Hg (1014.3 mb)
[Sea-level pressure: 1014.4 mb]
Winds: calm
Visibility: 10 or more miles (16+ km)
Ceiling: at least 12,000 feet AGL
Clouds: sky clear below 12,000 feet AGL
Present Weather:
SOME DATA ABOVE MAY BE INACCURATE!!!
"$" is an indication the sensor requires maintenance
KFMY 200653Z AUTO 00000KT 10SM CLR 27/26 A2995 RMK AO2 SLP144 T02670256 $

Conditions at: KFMY observed 20 August 2017  05:53 UTC
Temperature: 26.7°C (80°F)
Dewpoint: 25.6°C (78°F) [RH = 94%]
Pressure (altimeter): 29.98 inches Hg (1015.3 mb)
[Sea-level pressure: 1015.2 mb]
Winds: calm
Visibility: 10 or more miles (16+ km)
Ceiling: at least 12,000 feet AGL
Clouds: sky clear below 12,000 feet AGL
Present Weather:
SOME DATA ABOVE MAY BE INACCURATE!!!
"$" is an indication the sensor requires maintenance
KFMY 200553Z AUTO 00000KT 10SM CLR 27/26 A2998 RMK AO2 SLP152 T02670256 10283 20267 58002 $

Conditions at: KFMY observed 20 August 2017  04:53 UTC
Temperature: 26.7°C (80°F)
Dewpoint: 25.6°C (78°F) [RH = 94%]
Pressure (altimeter): 29.99 inches Hg (1015.7 mb)
[Sea-level pressure: 1015.7 mb]
Winds: from the E (100 degrees) at 5 MPH (4 knots; 2.1 m/s)
Visibility: 10 or more miles (16+ km)
Ceiling: at least 12,000 feet AGL
Clouds: sky clear below 12,000 feet AGL
Present Weather:
SOME DATA ABOVE MAY BE INACCURATE!!!
"$" is an indication the sensor requires maintenance
KFMY 200453Z AUTO 10004KT 10SM CLR 27/26 A2999 RMK AO2 SLP157 T02670256 403500233 $